Time;durP1;ratioP1;P1;durP2;ratioP2;P2;SDS_P1;SDS_P2;PMS_P1;PMS_P2;Temp;Humidity;BMP_temperature;BMP_pressure;BME280_temperature;BME280_humidity;BME280_pressure;Samples;Min_cycle;Max_cycle;Signal;HPM_P1;HPM_P2
2023/08/03 00:01:24;;;;;;;;;;;;;;;21.51;56.04;94568.13;10444613;28;1894;-72
2023/08/03 00:06:25;;;;;;;;;;;;;;;21.49;55.80;94569.50;10444488;28;2314;-73
2023/08/03 00:11:26;;;;;;;;;;;;;;;21.45;55.92;94574.59;10447854;28;1876;-71
2023/08/03 00:16:26;;;;;;;;;;;;;;;21.44;56.01;94572.25;10486073;28;1877;-72
2023/08/03 00:21:26;;;;;;;;;;;;;;;21.46;56.12;94562.19;10476606;28;1920;-73
2023/08/03 00:26:27;;;;;;;;;;;;;;;21.47;55.96;94574.31;10456283;28;2073;-73
2023/08/03 00:31:27;;;;;;;;;;;;;;;21.52;55.90;94563.59;10448996;28;1940;-73
2023/08/03 00:36:27;;;;;;;;;;;;;;;21.53;55.88;94584.41;10446379;28;4347;-73
2023/08/03 00:41:27;;;;;;;;;;;;;;;21.50;55.94;94579.72;10449486;28;2199;-72
2023/08/03 00:46:28;;;;;;;;;;;;;;;21.54;55.83;94556.94;10461501;28;2074;-73
2023/08/03 00:51:28;;;;;;;;;;;;;;;21.55;55.95;94557.72;10448521;28;2039;-73
2023/08/03 00:56:28;;;;;;;;;;;;;;;21.51;55.93;94562.06;10450655;28;1989;-73
2023/08/03 01:01:28;;;;;;;;;;;;;;;21.53;56.05;94563.31;10447613;28;1992;-73
2023/08/03 01:06:29;;;;;;;;;;;;;;;21.51;56.28;94564.69;10461141;28;2718;-73
2023/08/03 01:11:29;;;;;;;;;;;;;;;21.56;55.87;94538.16;10455763;28;2202;-73
2023/08/03 01:16:29;;;;;;;;;;;;;;;21.55;56.20;94541.91;10447133;28;2420;-72
2023/08/03 01:21:29;;;;;;;;;;;;;;;21.53;56.34;94536.94;10450338;28;2128;-72
2023/08/03 01:26:30;;;;;;;;;;;;;;;21.48;56.02;94536.28;10441092;28;2125;-71
2023/08/03 01:31:30;;;;;;;;;;;;;;;21.47;56.36;94527.63;10478811;28;1899;-72
2023/08/03 01:36:30;;;;;;;;;;;;;;;21.46;56.52;94533.97;10434521;28;4749;-73
2023/08/03 01:41:31;;;;;;;;;;;;;;;21.48;56.46;94534.44;10460987;28;1917;-73
2023/08/03 01:46:31;;;;;;;;;;;;;;;21.43;56.13;94525.91;10482067;28;1989;-73
2023/08/03 01:51:31;;;;;;;;;;;;;;;21.42;56.38;94538.31;10480904;28;1894;-73
2023/08/03 01:56:31;;;;;;;;;;;;;;;21.44;56.09;94525.59;10447733;28;2302;-72
2023/08/03 02:01:32;;;;;;;;;;;;;;;21.41;56.14;94536.75;10456445;28;2398;-72
2023/08/03 02:06:32;;;;;;;;;;;;;;;21.39;55.71;94533.63;10444516;28;2274;-72
2023/08/03 02:11:33;;;;;;;;;;;;;;;21.39;55.93;94553.97;10478536;28;1972;-73
2023/08/03 02:16:33;;;;;;;;;;;;;;;21.34;55.60;94546.19;10449577;28;1907;-72
2023/08/03 02:21:33;;;;;;;;;;;;;;;21.34;55.90;94546.97;10482293;28;1924;-72
2023/08/03 02:32:11;;;;;;;;;;;;;;;21.33;55.62;94550.69;10451090;28;1993;-72
2023/08/03 02:37:12;;;;;;;;;;;;;;;21.31;55.75;94538.91;10448280;28;4576;-72
2023/08/03 02:42:12;;;;;;;;;;;;;;;21.31;55.84;94550.22;10439686;28;1955;-71
2023/08/03 02:47:12;;;;;;;;;;;;;;;21.29;55.65;94544.47;10445939;28;1986;-73
2023/08/03 02:52:13;;;;;;;;;;;;;;;21.29;55.74;94555.00;10447766;28;1948;-71
2023/08/03 02:57:13;;;;;;;;;;;;;;;21.27;55.21;94553.78;10444559;28;2321;-72
2023/08/03 03:02:13;;;;;;;;;;;;;;;21.25;55.17;94569.09;10445805;28;1931;-73
2023/08/03 03:07:14;;;;;;;;;;;;;;;21.20;55.31;94577.16;10483024;28;2280;-74
2023/08/03 03:12:14;;;;;;;;;;;;;;;21.13;54.98;94567.06;10442428;28;2278;-74
2023/08/03 03:17:14;;;;;;;;;;;;;;;21.12;54.25;94564.75;10450610;28;2239;-73
2023/08/03 03:22:15;;;;;;;;;;;;;;;21.10;54.22;94561.63;10451331;28;2201;-73
2023/08/03 03:27:15;;;;;;;;;;;;;;;21.05;54.08;94552.78;10479355;28;2227;-73
2023/08/03 03:32:15;;;;;;;;;;;;;;;20.99;54.03;94563.72;10446621;28;1972;-72
2023/08/03 03:37:15;;;;;;;;;;;;;;;21.03;53.73;94548.91;10439345;28;6631;-73
2023/08/03 03:42:16;;;;;;;;;;;;;;;20.99;53.68;94567.16;10451551;28;5364;-73
2023/08/03 03:47:16;;;;;;;;;;;;;;;20.95;53.47;94582.00;10452943;28;1948;-73
2023/08/03 03:52:16;;;;;;;;;;;;;;;20.91;53.79;94567.88;10446589;28;5373;-73
2023/08/03 03:57:16;;;;;;;;;;;;;;;20.90;53.47;94582.13;10473700;28;2139;-72
2023/08/03 04:02:17;;;;;;;;;;;;;;;20.87;53.21;94580.13;10445023;28;1951;-72
2023/08/03 04:07:17;;;;;;;;;;;;;;;20.85;53.26;94582.28;10446192;28;5423;-73
2023/08/03 04:12:17;;;;;;;;;;;;;;;20.85;53.19;94586.75;10450627;28;1955;-72
2023/08/03 04:17:17;;;;;;;;;;;;;;;20.80;53.11;94602.69;10461486;28;2162;-73
2023/08/03 04:22:18;;;;;;;;;;;;;;;20.81;53.23;94597.09;10438854;28;2259;-72
2023/08/03 04:27:18;;;;;;;;;;;;;;;20.83;53.20;94589.69;10477511;28;2085;-72
2023/08/03 04:32:18;;;;;;;;;;;;;;;20.81;53.02;94598.97;10446655;28;1990;-72
2023/08/03 04:37:18;;;;;;;;;;;;;;;20.80;52.87;94605.31;10469305;28;1951;-71
2023/08/03 04:42:19;;;;;;;;;;;;;;;20.79;52.90;94617.69;10447162;28;6005;-71
2023/08/03 04:47:19;;;;;;;;;;;;;;;20.80;52.51;94615.84;10447386;28;1951;-72
2023/08/03 04:52:21;;;;;;;;;;;;;;;20.77;52.39;94630.38;10443031;28;2108;-72
2023/08/03 04:57:21;;;;;;;;;;;;;;;20.76;52.08;94633.31;10453893;28;2050;-72
2023/08/03 05:02:21;;;;;;;;;;;;;;;20.69;51.84;94625.84;10447390;28;2010;-72
2023/08/03 05:07:21;;;;;;;;;;;;;;;20.71;51.92;94625.56;10450223;28;1981;-70
2023/08/03 05:12:22;;;;;;;;;;;;;;;20.69;52.01;94617.94;10465863;28;2224;-71
2023/08/03 05:17:22;;;;;;;;;;;;;;;20.67;51.83;94622.75;10444643;28;1912;-72
2023/08/03 05:22:23;;;;;;;;;;;;;;;20.67;51.69;94612.22;10446530;28;2231;-72
2023/08/03 05:27:23;;;;;;;;;;;;;;;20.68;51.31;94602.47;10450429;28;1954;-72
2023/08/03 05:32:26;;;;;;;;;;;;;;;20.65;51.19;94611.72;10453101;28;1977;-72
2023/08/03 05:37:26;;;;;;;;;;;;;;;20.62;51.42;94599.19;10446063;28;2063;-72
2023/08/03 05:42:27;;;;;;;;;;;;;;;20.60;50.73;94605.81;10484310;28;5053;-72
2023/08/03 05:47:27;;;;;;;;;;;;;;;20.62;50.83;94601.81;10452364;28;1902;-71
2023/08/03 05:52:27;;;;;;;;;;;;;;;20.59;50.29;94610.28;10446940;28;2115;-72
2023/08/03 05:57:28;;;;;;;;;;;;;;;20.70;50.75;94622.16;10443237;28;1947;-66
2023/08/03 06:02:32;;;;;;;;;;;;;;;20.82;51.32;94630.28;10469051;28;2048;-73
2023/08/03 06:07:32;;;;;;;;;;;;;;;20.90;51.39;94632.19;10447722;28;2035;-71
2023/08/03 06:12:32;;;;;;;;;;;;;;;20.98;51.88;94641.19;10443089;28;1931;-71
2023/08/03 06:17:32;;;;;;;;;;;;;;;21.04;51.63;94658.47;10447505;28;1872;-71
2023/08/03 06:22:33;;;;;;;;;;;;;;;21.10;51.99;94652.00;10453004;28;1959;-72
2023/08/03 06:27:33;;;;;;;;;;;;;;;21.16;51.96;94665.81;10445247;28;2174;-71
2023/08/03 06:32:33;;;;;;;;;;;;;;;21.20;52.05;94651.75;10440168;28;2022;-71
2023/08/03 06:37:34;;;;;;;;;;;;;;;21.24;51.66;94662.44;10436437;28;2234;-71
2023/08/03 06:42:34;;;;;;;;;;;;;;;21.28;51.75;94651.00;10439799;28;5169;-76
2023/08/03 06:47:34;;;;;;;;;;;;;;;21.32;51.90;94665.13;10438310;28;1898;-70
2023/08/03 06:52:34;;;;;;;;;;;;;;;21.34;51.72;94675.34;10447403;28;1986;-72
2023/08/03 06:57:35;;;;;;;;;;;;;;;21.37;52.01;94685.31;10438895;28;1983;-69
2023/08/03 07:02:35;;;;;;;;;;;;;;;21.40;51.82;94692.59;10434312;28;1928;-71
2023/08/03 07:07:35;;;;;;;;;;;;;;;21.43;52.12;94670.91;10439903;28;2030;-72
2023/08/03 07:12:36;;;;;;;;;;;;;;;21.46;51.78;94675.56;10433999;28;2027;-72
2023/08/03 07:17:36;;;;;;;;;;;;;;;21.48;52.19;94679.44;10433987;28;1939;-74
2023/08/03 07:22:37;;;;;;;;;;;;;;;21.51;51.90;94683.34;10435715;28;2039;-71
2023/08/03 07:27:40;;;;;;;;;;;;;;;21.51;51.95;94688.63;10438661;28;2135;-72
2023/08/03 07:32:40;;;;;;;;;;;;;;;21.53;51.90;94703.06;10440605;28;2123;-71
2023/08/03 07:37:41;;;;;;;;;;;;;;;21.54;52.01;94688.00;10439915;28;1917;-75
2023/08/03 07:42:41;;;;;;;;;;;;;;;21.56;52.16;94686.63;10438826;28;1939;-76
2023/08/03 07:47:41;;;;;;;;;;;;;;;21.57;52.17;94697.94;10442894;28;1971;-74
2023/08/03 07:52:41;;;;;;;;;;;;;;;21.59;52.14;94701.06;10432749;28;1908;-72
2023/08/03 07:57:42;;;;;;;;;;;;;;;21.61;52.21;94714.72;10434573;28;1956;-73
2023/08/03 08:02:42;;;;;;;;;;;;;;;21.62;51.91;94706.50;10470680;28;1938;-73
2023/08/03 08:07:42;;;;;;;;;;;;;;;21.63;52.00;94721.25;10434630;28;2013;-76
2023/08/03 08:12:42;;;;;;;;;;;;;;;21.64;51.95;94716.72;10438548;28;1912;-75
2023/08/03 08:17:43;;;;;;;;;;;;;;;21.65;52.21;94720.94;10433217;28;2156;-71
2023/08/03 08:22:43;;;;;;;;;;;;;;;21.63;51.77;94718.59;10445108;28;1951;-75
2023/08/03 08:27:43;;;;;;;;;;;;;;;21.64;51.81;94735.19;10445828;28;2297;-73
2023/08/03 08:32:44;;;;;;;;;;;;;;;21.65;52.22;94745.47;10444557;28;1984;-73
2023/08/03 08:37:44;;;;;;;;;;;;;;;21.67;52.06;94750.41;10443058;28;2293;-70
2023/08/03 08:42:50;;;;;;;;;;;;;;;21.68;51.80;94747.47;10441508;28;5020;-74
2023/08/03 08:47:51;;;;;;;;;;;;;;;21.69;51.94;94761.44;10442411;28;2012;-74
2023/08/03 08:52:51;;;;;;;;;;;;;;;21.70;51.93;94755.09;10446189;28;1911;-75
2023/08/03 08:57:51;;;;;;;;;;;;;;;21.71;52.33;94761.91;10440586;28;1922;-73
2023/08/03 09:02:56;;;;;;;;;;;;;;;21.71;51.89;94775.09;10445637;28;1948;-73
2023/08/03 09:08:05;;;;;;;;;;;;;;;21.73;51.62;94775.56;10441658;28;1979;-71
2023/08/03 09:13:06;;;;;;;;;;;;;;;21.75;51.94;94776.06;10444920;28;1955;-72
2023/08/03 09:18:06;;;;;;;;;;;;;;;21.75;52.03;94779.47;10445472;28;2043;-71
2023/08/03 09:23:06;;;;;;;;;;;;;;;21.76;52.08;94785.53;10475166;28;2469;-71
2023/08/03 09:28:07;;;;;;;;;;;;;;;21.77;51.95;94779.16;10445554;28;1973;-66
2023/08/03 09:33:14;;;;;;;;;;;;;;;21.78;52.10;94783.38;10443894;28;1794;-69
2023/08/03 09:38:23;;;;;;;;;;;;;;;21.78;51.72;94780.72;10439877;28;1826;-70
2023/08/03 09:43:25;;;;;;;;;;;;;;;21.78;51.90;94794.69;10441860;28;5142;-66
2023/08/03 09:48:26;;;;;;;;;;;;;;;21.79;51.85;94795.47;10440148;28;2059;-67
2023/08/03 09:53:28;;;;;;;;;;;;;;;21.77;51.42;94785.22;10447530;28;2069;-69
2023/08/03 09:58:29;;;;;;;;;;;;;;;21.79;51.84;94790.97;10455334;28;2000;-71
2023/08/03 10:03:30;;;;;;;;;;;;;;;21.83;51.33;94801.72;10479209;28;2008;-72
2023/08/03 10:08:31;;;;;;;;;;;;;;;21.81;51.89;94801.22;10447476;28;1967;-70
2023/08/03 10:13:32;;;;;;;;;;;;;;;21.83;51.76;94807.00;10453723;28;2084;-72
2023/08/03 10:18:33;;;;;;;;;;;;;;;21.83;51.76;94809.63;10446267;28;2221;-71
2023/08/03 10:23:38;;;;;;;;;;;;;;;21.83;51.93;94813.06;10442485;28;1941;-72
2023/08/03 10:28:38;;;;;;;;;;;;;;;21.85;51.64;94807.47;10450200;28;1918;-71
2023/08/03 10:33:51;;;;;;;;;;;;;;;21.84;51.40;94816.47;10444715;28;2111;-75
2023/08/03 10:38:54;;;;;;;;;;;;;;;21.85;51.52;94820.66;10439559;28;2093;-72
2023/08/03 10:44:07;;;;;;;;;;;;;;;21.86;51.50;94830.16;10443006;28;5135;-73
2023/08/03 10:49:19;;;;;;;;;;;;;;;21.85;51.48;94824.09;10441624;28;1909;-71
2023/08/03 10:54:20;;;;;;;;;;;;;;;21.87;51.72;94829.06;10455084;28;1820;-71
2023/08/03 10:59:20;;;;;;;;;;;;;;;21.88;51.47;94835.91;10450860;28;1902;-71
2023/08/03 11:04:24;;;;;;;;;;;;;;;21.89;51.78;94829.53;10439410;28;1934;-69
2023/08/03 11:09:24;;;;;;;;;;;;;;;21.90;51.47;94823.19;10445310;28;1905;-69
2023/08/03 11:14:24;;;;;;;;;;;;;;;21.88;51.48;94834.00;10446695;28;2201;-69
2023/08/03 11:19:32;;;;;;;;;;;;;;;21.91;51.56;94800.97;10478645;28;2484;-70
2023/08/03 11:24:32;;;;;;;;;;;;;;;21.91;51.26;94814.16;10474034;28;1888;-70
2023/08/03 11:29:35;;;;;;;;;;;;;;;21.91;51.50;94814.16;10445059;28;2033;-71
2023/08/03 11:34:36;;;;;;;;;;;;;;;21.91;51.59;94806.25;10474911;28;1869;-72
2023/08/03 11:39:36;;;;;;;;;;;;;;;21.92;51.44;94804.41;10467717;28;1807;-70
2023/08/03 11:44:37;;;;;;;;;;;;;;;21.93;51.39;94806.72;10429102;28;4968;-68
2023/08/03 11:49:37;;;;;;;;;;;;;;;21.95;51.71;94812.47;10440144;28;1922;-71
2023/08/03 11:54:39;;;;;;;;;;;;;;;21.97;51.84;94805.03;10432889;28;1825;-69
2023/08/03 11:59:40;;;;;;;;;;;;;;;21.98;51.83;94819.81;10430756;28;1885;-70
2023/08/03 12:04:40;;;;;;;;;;;;;;;21.98;51.73;94819.81;10444693;28;1859;-77
2023/08/03 12:09:41;;;;;;;;;;;;;;;22.00;51.75;94809.72;10431068;28;1914;-74
2023/08/03 12:14:41;;;;;;;;;;;;;;;22.01;52.00;94805.97;10435052;28;2242;-72
2023/08/03 12:19:41;;;;;;;;;;;;;;;22.04;51.81;94801.97;10439497;28;2002;-74
2023/08/03 12:24:41;;;;;;;;;;;;;;;22.06;52.15;94805.06;10438688;28;1959;-72
2023/08/03 12:29:42;;;;;;;;;;;;;;;22.06;52.26;94807.72;10444444;28;1987;-69
2023/08/03 12:34:42;;;;;;;;;;;;;;;22.07;52.21;94807.41;10438777;28;1822;-74
2023/08/03 12:39:42;;;;;;;;;;;;;;;22.08;51.99;94822.16;10451928;28;1818;-77
2023/08/03 12:44:42;;;;;;;;;;;;;;;22.09;52.05;94815.03;10442641;28;1794;-78
2023/08/03 12:49:43;;;;;;;;;;;;;;;22.08;52.31;94822.16;10437063;28;2144;-74
2023/08/03 12:54:43;;;;;;;;;;;;;;;22.10;52.17;94817.34;10435009;28;1934;-74
2023/08/03 12:59:43;;;;;;;;;;;;;;;22.11;52.04;94824.22;10437688;28;1998;-71
2023/08/03 13:04:50;;;;;;;;;;;;;;;22.14;52.18;94833.34;10436276;28;1862;-70
2023/08/03 13:09:50;;;;;;;;;;;;;;;22.14;52.14;94865.81;10438054;28;1973;-69
2023/08/03 13:14:50;;;;;;;;;;;;;;;22.15;52.39;94856.81;10438660;28;1861;-70
2023/08/03 13:19:51;;;;;;;;;;;;;;;22.16;52.36;94854.94;10447506;28;1861;-71
2023/08/03 13:24:51;;;;;;;;;;;;;;;22.15;52.03;94842.84;10443888;28;2057;-70
2023/08/03 13:29:52;;;;;;;;;;;;;;;22.16;52.07;94858.38;10442328;28;1971;-72
2023/08/03 13:34:52;;;;;;;;;;;;;;;22.15;52.36;94851.56;10447231;28;1833;-71
2023/08/03 13:39:52;;;;;;;;;;;;;;;22.18;52.14;94850.13;10440010;28;1973;-74
2023/08/03 13:44:53;;;;;;;;;;;;;;;22.18;52.13;94855.41;10450023;28;5099;-74
2023/08/03 13:49:54;;;;;;;;;;;;;;;22.18;52.28;94864.13;10442452;28;1939;-75
2023/08/03 13:54:54;;;;;;;;;;;;;;;22.18;52.28;94845.66;10441569;28;1822;-74
2023/08/03 13:59:54;;;;;;;;;;;;;;;22.19;51.91;94846.44;10447993;28;2017;-80
2023/08/03 14:04:54;;;;;;;;;;;;;;;22.19;52.08;94849.84;10448449;28;2424;-83
2023/08/03 14:09:55;;;;;;;;;;;;;;;22.20;51.91;94861.97;10445272;28;2104;-68
2023/08/03 14:14:55;;;;;;;;;;;;;;;22.20;52.05;94859.31;10446259;28;2033;-76
2023/08/03 14:19:55;;;;;;;;;;;;;;;22.21;52.02;94860.88;10444501;28;1900;-77
2023/08/03 14:24:56;;;;;;;;;;;;;;;22.24;49.71;94873.47;10452332;28;2056;-72
2023/08/03 14:29:56;;;;;;;;;;;;;;;22.23;44.38;94879.84;10455613;28;1978;-74
2023/08/03 14:34:56;;;;;;;;;;;;;;;22.15;42.64;94869.25;10449509;28;1464;-73
2023/08/03 14:39:57;;;;;;;;;;;;;;;22.06;42.22;94873.69;10459518;28;1527;-72
2023/08/03 14:44:57;;;;;;;;;;;;;;;22.04;40.44;94870.56;10457662;28;5040;-71
2023/08/03 14:49:57;;;;;;;;;;;;;;;21.96;41.93;94869.47;10450281;28;1921;-73
2023/08/03 14:54:58;;;;;;;;;;;;;;;21.96;43.02;94884.50;10456886;28;1819;-71
2023/08/03 14:59:58;;;;;;;;;;;;;;;21.98;44.26;94871.78;10452253;28;1605;-73
2023/08/03 15:04:58;;;;;;;;;;;;;;;22.00;44.90;94886.25;10451057;28;1436;-72
2023/08/03 15:09:58;;;;;;;;;;;;;;;22.02;45.70;94886.72;10454999;28;1878;-73
2023/08/03 15:14:59;;;;;;;;;;;;;;;22.06;46.16;94885.03;10448639;28;1654;-72
2023/08/03 15:19:59;;;;;;;;;;;;;;;22.08;46.29;94888.16;10455077;28;1494;-71
2023/08/03 15:24:59;;;;;;;;;;;;;;;22.09;46.43;94873.84;10459528;28;1538;-71
2023/08/03 15:29:59;;;;;;;;;;;;;;;22.13;46.99;94880.09;10449106;28;1902;-71
2023/08/03 15:35:00;;;;;;;;;;;;;;;22.14;47.31;94879.00;10445069;28;1633;-71
2023/08/03 15:40:01;;;;;;;;;;;;;;;22.15;47.36;94875.31;10448736;28;2099;-71
2023/08/03 15:45:01;;;;;;;;;;;;;;;22.17;47.49;94880.28;10453871;28;1499;-71
2023/08/03 15:50:01;;;;;;;;;;;;;;;22.18;47.67;94884.44;10453189;28;1934;-70
2023/08/03 15:55:02;;;;;;;;;;;;;;;22.17;48.10;94888.97;10450227;28;1717;-72
2023/08/03 16:00:02;;;;;;;;;;;;;;;22.19;48.20;94878.09;10452847;28;2268;-73
2023/08/03 16:05:03;;;;;;;;;;;;;;;22.20;48.32;94888.34;10453869;28;1417;-72
2023/08/03 16:10:03;;;;;;;;;;;;;;;22.20;48.36;94883.06;10456322;28;1906;-70
2023/08/03 16:15:04;;;;;;;;;;;;;;;22.21;48.55;94879.38;10452851;28;1515;-73
2023/08/03 16:20:04;;;;;;;;;;;;;;;22.23;48.91;94864.00;10450440;28;1467;-73
2023/08/03 16:25:05;;;;;;;;;;;;;;;22.24;48.85;94867.41;10452324;28;1471;-75
2023/08/03 16:30:06;;;;;;;;;;;;;;;22.26;49.01;94863.38;10456375;28;1965;-75
2023/08/03 16:35:06;;;;;;;;;;;;;;;22.28;49.07;94870.97;10453288;28;1538;-76
2023/08/03 16:40:07;;;;;;;;;;;;;;;22.28;49.19;94871.78;10481863;28;1494;-74
2023/08/03 16:45:07;;;;;;;;;;;;;;;22.29;49.27;94875.19;10455864;28;4850;-73
2023/08/03 16:50:08;;;;;;;;;;;;;;;22.29;49.77;94872.56;10469469;28;1910;-79
2023/08/03 16:55:08;;;;;;;;;;;;;;;22.30;49.45;94879.38;10459842;28;1832;-75
2023/08/03 17:00:13;;;;;;;;;;;;;;;22.32;49.63;94871.94;10463681;28;1565;-71
2023/08/03 17:05:14;;;;;;;;;;;;;;;22.32;49.76;94877.22;10452245;28;1870;-73
2023/08/03 17:10:14;;;;;;;;;;;;;;;22.32;49.51;94878.00;10452604;28;1906;-73
2023/08/03 17:15:15;;;;;;;;;;;;;;;22.33;49.60;94878.78;10452066;28;1970;-71
2023/08/03 17:20:15;;;;;;;;;;;;;;;22.32;49.90;94880.63;10449292;28;2076;-75
2023/08/03 17:25:16;;;;;;;;;;;;;;;22.33;50.01;94881.41;10448856;28;2009;-75
2023/08/03 17:30:16;;;;;;;;;;;;;;;22.33;49.87;94890.13;10457122;28;1967;-75
2023/08/03 17:35:17;;;;;;;;;;;;;;;22.33;49.85;94895.41;10448960;28;1937;-76
2023/08/03 17:40:17;;;;;;;;;;;;;;;22.34;49.82;94891.66;10451199;28;1854;-73
2023/08/03 17:45:17;;;;;;;;;;;;;;;22.33;49.67;94908.59;10456788;28;4578;-75
2023/08/03 17:50:18;;;;;;;;;;;;;;;22.35;49.86;94913.56;10452693;28;1838;-72
2023/08/03 17:55:19;;;;;;;;;;;;;;;22.33;49.71;94908.59;10444913;28;1862;-73
2023/08/03 18:00:19;;;;;;;;;;;;;;;22.33;49.65;94905.97;10450164;28;2159;-73
2023/08/03 18:05:20;;;;;;;;;;;;;;;22.34;49.81;94912.03;10447581;28;1938;-72
2023/08/03 18:10:20;;;;;;;;;;;;;;;22.33;49.78;94911.25;10447906;28;2156;-73
2023/08/03 18:15:20;;;;;;;;;;;;;;;22.34;50.02;94918.06;10446485;28;2077;-72
2023/08/03 18:20:21;;;;;;;;;;;;;;;22.33;49.73;94921.81;10448556;28;2167;-72
2023/08/03 18:25:21;;;;;;;;;;;;;;;22.33;49.78;94932.38;10452293;28;1957;-69
2023/08/03 18:30:21;;;;;;;;;;;;;;;22.35;50.16;94934.69;10445324;28;1901;-70
2023/08/03 18:35:22;;;;;;;;;;;;;;;22.35;50.10;94946.03;10442833;28;1888;-71
2023/08/03 18:40:22;;;;;;;;;;;;;;;22.39;49.46;94949.63;10455016;28;1810;-68
2023/08/03 18:45:22;;;;;;;;;;;;;;;22.43;49.63;94969.06;10447428;28;4601;-71
2023/08/03 18:50:22;;;;;;;;;;;;;;;22.45;49.09;94960.84;10443286;28;1853;-68
2023/08/03 18:55:23;;;;;;;;;;;;;;;22.46;49.14;94965.81;10439443;28;2012;-68
2023/08/03 19:00:23;;;;;;;;;;;;;;;22.50;49.24;94963.38;10445290;28;1957;-70
2023/08/03 19:05:23;;;;;;;;;;;;;;;22.53;50.31;94978.59;10436704;28;2025;-66
2023/08/03 19:10:24;;;;;;;;;;;;;;;22.59;52.26;94978.19;10451143;28;2108;-64
2023/08/03 19:15:31;;;;;;;;;;;;;;;22.62;52.73;94990.00;10440990;28;1956;-63
2023/08/03 19:20:31;;;;;;;;;;;;;;;22.64;53.46;94996.56;10435431;28;2067;-66
2023/08/03 19:25:32;;;;;;;;;;;;;;;22.64;53.47;94993.13;10441702;28;1912;-67
2023/08/03 19:30:35;;;;;;;;;;;;;;;22.65;54.22;95008.66;10449043;28;1862;-67
2023/08/03 19:35:36;;;;;;;;;;;;;;;22.67;55.02;95013.63;10436640;28;2503;-66
2023/08/03 19:40:36;;;;;;;;;;;;;;;22.64;55.24;95017.69;10444758;28;4494;-64
2023/08/03 19:45:37;;;;;;;;;;;;;;;22.67;54.76;95026.09;10441715;28;2207;-66
2023/08/03 19:50:37;;;;;;;;;;;;;;;22.65;55.54;95044.88;10439047;28;1967;-67
2023/08/03 19:55:37;;;;;;;;;;;;;;;22.62;55.44;95048.91;10443571;28;1935;-66
2023/08/03 20:00:38;;;;;;;;;;;;;;;22.61;55.35;95031.50;10447827;28;1875;-65
2023/08/03 20:05:38;;;;;;;;;;;;;;;22.59;55.65;95038.94;10446149;28;1950;-66
2023/08/03 20:10:38;;;;;;;;;;;;;;;22.53;55.49;95060.47;10440812;28;1874;-67
2023/08/03 20:15:38;;;;;;;;;;;;;;;22.46;55.49;95078.63;10446710;28;1871;-65
2023/08/03 20:20:39;;;;;;;;;;;;;;;22.43;55.68;95102.97;10437499;28;2026;-65
2023/08/03 20:25:39;;;;;;;;;;;;;;;22.34;55.33;95116.09;10453115;28;2064;-65
2023/08/03 20:30:40;;;;;;;;;;;;;;;22.28;54.62;95101.47;10449775;28;2049;-64
2023/08/03 20:35:40;;;;;;;;;;;;;;;22.26;55.25;95100.97;10449753;28;1911;-65
2023/08/03 20:40:40;;;;;;;;;;;;;;;22.24;55.18;95113.69;10446890;28;4571;-65
2023/08/03 20:45:41;;;;;;;;;;;;;;;22.22;55.86;95131.69;10471058;28;1910;-66
2023/08/03 20:50:41;;;;;;;;;;;;;;;22.23;56.20;95143.03;10447256;28;2098;-63
2023/08/03 20:55:43;;;;;;;;;;;;;;;22.22;55.86;95138.84;10447474;28;1983;-63
2023/08/03 21:00:49;;;;;;;;;;;;;;;22.21;56.30;95139.94;10447134;28;1855;-65
2023/08/03 21:05:49;;;;;;;;;;;;;;;22.21;56.76;95146.00;10447904;28;1901;-65
2023/08/03 21:10:50;;;;;;;;;;;;;;;22.20;56.83;95152.34;10481391;28;1901;-68
2023/08/03 21:15:50;;;;;;;;;;;;;;;22.20;57.38;95154.19;10446174;28;2005;-68
2023/08/03 21:20:50;;;;;;;;;;;;;;;22.20;57.34;95164.75;10440346;28;1951;-67
2023/08/03 21:25:50;;;;;;;;;;;;;;;22.20;57.74;95165.53;10450722;28;1979;-66
2023/08/03 21:30:51;;;;;;;;;;;;;;;22.22;57.76;95162.59;10445474;28;1931;-66
2023/08/03 21:35:51;;;;;;;;;;;;;;;22.20;57.84;95173.47;10443956;28;2242;-70
2023/08/03 21:40:51;;;;;;;;;;;;;;;22.21;57.51;95177.69;10448867;28;4538;-67
2023/08/03 21:45:53;;;;;;;;;;;;;;;22.20;57.98;95164.75;10461097;28;1909;-67
2023/08/03 21:50:53;;;;;;;;;;;;;;;22.20;58.07;95165.53;10442829;28;1874;-67
2023/08/03 21:55:53;;;;;;;;;;;;;;;22.21;58.62;95177.69;10447172;28;1894;-67
2023/08/03 22:00:54;;;;;;;;;;;;;;;22.19;58.06;95179.84;10447551;28;1885;-68
2023/08/03 22:05:54;;;;;;;;;;;;;;;22.19;58.41;95177.19;10441757;28;2207;-67
2023/08/03 22:10:54;;;;;;;;;;;;;;;22.19;58.28;95184.31;10451823;28;1878;-67
2023/08/03 22:15:54;;;;;;;;;;;;;;;22.17;58.31;95179.34;10448264;28;1986;-67
2023/08/03 22:21:04;;;;;;;;;;;;;;;22.18;58.32;95172.97;10445799;28;1867;-68
2023/08/03 22:26:04;;;;;;;;;;;;;;;22.16;58.20;95185.69;10457453;28;1971;-67
2023/08/03 22:31:04;;;;;;;;;;;;;;;22.17;58.32;95203.09;10448257;28;2317;-65
2023/08/03 22:36:14;;;;;;;;;;;;;;;22.17;58.07;95208.38;10448186;28;1914;-67
2023/08/03 22:41:14;;;;;;;;;;;;;;;22.16;57.84;95206.81;10454066;28;4482;-67
2023/08/03 22:46:17;;;;;;;;;;;;;;;22.15;57.82;95194.69;10444011;28;1980;-67
2023/08/03 22:51:18;;;;;;;;;;;;;;;22.15;58.12;95186.00;10439780;28;1901;-67
2023/08/03 22:56:18;;;;;;;;;;;;;;;22.15;58.17;95197.34;10448199;28;1974;-68
2023/08/03 23:01:19;;;;;;;;;;;;;;;22.15;58.31;95207.91;10445732;28;1901;-67
2023/08/03 23:06:20;;;;;;;;;;;;;;;22.15;58.08;95220.31;10443781;28;1945;-68
2023/08/03 23:11:20;;;;;;;;;;;;;;;22.14;57.90;95216.88;10441697;28;1882;-67
2023/08/03 23:16:20;;;;;;;;;;;;;;;22.15;58.19;95220.31;10444832;28;1886;-67
2023/08/03 23:21:21;;;;;;;;;;;;;;;22.14;58.05;95259.13;10438306;28;1897;-67
2023/08/03 23:26:22;;;;;;;;;;;;;;;22.12;57.58;95273.69;10445498;28;1925;-67
2023/08/03 23:31:23;;;;;;;;;;;;;;;22.12;58.04;95266.56;10436314;28;2796;-68
2023/08/03 23:36:23;;;;;;;;;;;;;;;22.11;57.63;95262.34;10439931;28;1965;-67
2023/08/03 23:41:23;;;;;;;;;;;;;;;22.11;57.19;95251.81;10444869;28;4517;-68
2023/08/03 23:46:23;;;;;;;;;;;;;;;22.11;57.36;95246.53;10445090;28;1977;-67
2023/08/03 23:51:24;;;;;;;;;;;;;;;22.12;57.42;95239.38;10444841;28;2073;-67
2023/08/03 23:56:24;;;;;;;;;;;;;;;22.12;57.72;95242.78;10444246;28;1904;-67
